Time;durP1;ratioP1;P1;durP2;ratioP2;P2;SDS_P1;SDS_P2;PMS_P1;PMS_P2;Temp;Humidity;BMP_temperature;BMP_pressure;BME280_temperature;BME280_humidity;BME280_pressure;Samples;Min_cycle;Max_cycle;Signal;HPM_P1;HPM_P2
2023/05/14 00:00:25;;;;;;;;;10.25;8.00;;;;;15.67;72.79;101613.31;146621;662;46021;-78
2023/05/14 00:03:18;;;;;;;;;6.75;6.25;;;;;15.72;73.46;101616.13;146615;671;46012;-79
2023/05/14 00:06:21;;;;;;;;;10.00;8.25;;;;;15.76;73.80;101628.50;146622;578;46010;-77
2023/05/14 00:09:16;;;;;;;;;8.50;7.75;;;;;15.75;74.01;101640.69;146616;662;46014;-76
2023/05/14 00:12:16;;;;;;;;;8.25;6.25;;;;;15.75;74.46;101634.56;146618;588;47022;-73
2023/05/14 00:15:12;;;;;;;;;6.00;5.00;;;;;15.74;74.96;101631.06;146618;630;46017;-73
2023/05/14 00:18:04;;;;;;;;;6.75;6.00;;;;;15.72;75.24;101637.03;146621;639;47010;-72
2023/05/14 00:21:11;;;;;;;;;8.00;7.50;;;;;15.09;73.86;101527.91;146617;641;46013;-72
2023/05/14 00:24:22;;;;;;;;;9.75;8.50;;;;;15.52;73.69;101604.75;146620;670;46020;-72
2023/05/14 00:27:19;;;;;;;;;11.00;10.00;;;;;15.70;74.87;101624.78;146618;587;46012;-76
2023/05/14 00:30:13;;;;;;;;;9.75;9.00;;;;;15.67;75.21;101614.19;146614;642;46010;-75
2023/05/14 00:33:14;;;;;;;;;10.75;8.50;;;;;15.67;75.49;101608.09;146620;580;46016;-74
2023/05/14 00:36:31;;;;;;;;;10.00;9.00;;;;;15.40;75.68;101539.75;146622;618;46010;-74
2023/05/14 00:39:23;;;;;;;;;12.00;9.25;;;;;15.63;76.95;101569.50;146618;628;46914;-74
2023/05/14 00:42:25;;;;;;;;;11.25;9.50;;;;;15.55;77.02;101550.88;146610;703;46010;-74
2023/05/14 00:45:49;;;;;;;;;11.75;9.75;;;;;15.58;76.45;101553.62;146613;583;46016;-74
2023/05/14 00:48:48;;;;;;;;;10.00;8.00;;;;;15.61;77.72;101543.31;146620;731;46010;-74
2023/05/14 00:51:48;;;;;;;;;11.50;9.75;;;;;15.62;76.89;101537.25;146615;578;46012;-74
2023/05/14 00:54:56;;;;;;;;;8.75;8.25;;;;;15.62;76.98;101554.66;146619;620;47010;-75
2023/05/14 00:57:50;;;;;;;;;7.25;7.25;;;;;15.62;77.22;101544.19;146618;603;46021;-75
2023/05/14 01:00:44;;;;;;;;;7.75;7.25;;;;;15.61;78.13;101543.31;146620;619;46020;-75
2023/05/14 01:03:52;;;;;;;;;9.75;8.50;;;;;15.57;77.25;101536.13;146615;607;46016;-74
2023/05/14 01:07:33;;;;;;;;;9.75;9.25;;;;;15.51;76.86;101525.41;146621;641;46021;-74
2023/05/14 01:11:11;;;;;;;;;;;;;;;;;;;;;
2023/05/14 01:14:39;;;;;;;;;7.50;7.50;;;;;15.42;76.78;101544.22;146613;579;46011;-85
2023/05/14 01:17:44;;;;;;;;;11.25;9.00;;;;;15.49;77.08;101548.00;146616;577;46038;-87
2023/05/14 01:20:43;;;;;;;;;8.75;7.00;;;;;15.48;77.11;101548.78;146620;586;46011;-86
2023/05/14 01:23:41;;;;;;;;;10.00;8.25;;;;;15.50;77.05;101555.00;146617;701;46017;-84
2023/05/14 01:26:40;;;;;;;;;10.00;9.50;;;;;15.51;77.15;101563.72;146620;637;46010;-74
2023/05/14 01:29:44;;;;;;;;;11.00;9.25;;;;;15.50;76.82;101573.28;146618;708;46916;-76
2023/05/14 01:32:38;;;;;;;;;10.00;9.50;;;;;15.48;76.66;101574.94;146620;640;46020;-76
2023/05/14 01:35:52;;;;;;;;;7.25;7.25;;;;;15.44;76.00;101576.53;146616;564;46016;-77
2023/05/14 01:39:08;;;;;;;;;14.25;12.00;;;;;15.37;76.38;101577.09;146618;609;46020;-74
2023/05/14 01:42:18;;;;;;;;;9.75;8.50;;;;;15.21;76.95;101566.75;146609;580;47914;-72
2023/05/14 01:45:19;;;;;;;;;8.50;8.50;;;;;15.07;77.04;101570.44;146615;618;47021;-71
2023/05/14 01:48:31;;;;;;;;;10.25;10.00;;;;;14.93;77.01;101581.16;146618;584;46016;-71
2023/05/14 01:51:28;;;;;;;;;8.50;7.00;;;;;14.86;77.43;101578.16;146612;573;46027;-75
2023/05/14 01:54:26;;;;;;;;;10.75;9.00;;;;;14.86;77.95;101588.59;146616;635;46037;-76
2023/05/14 01:57:24;;;;;;;;;11.25;9.00;;;;;14.85;77.11;101586.81;146621;592;47015;-73
2023/05/14 02:00:30;;;;;;;;;12.00;10.00;;;;;14.79;76.80;101572.63;146620;563;46917;-74
2023/05/14 02:03:43;;;;;;;;;12.50;9.75;;;;;14.73;77.26;101569.75;146614;576;46010;-73
2023/05/14 02:06:43;;;;;;;;;8.50;7.75;;;;;14.65;77.03;101571.09;146618;608;46012;-74
2023/05/14 02:09:46;;;;;;;;;9.75;8.75;;;;;14.59;76.92;101568.19;146622;624;46020;-74
2023/05/14 02:12:45;;;;;;;;;9.25;9.25;;;;;14.52;76.67;101561.78;146613;706;47012;-73
2023/05/14 02:15:39;;;;;;;;;9.25;9.00;;;;;14.48;76.84;101545.87;146616;602;46020;-74
2023/05/14 02:18:34;;;;;;;;;7.75;7.75;;;;;14.46;77.05;101552.75;146620;660;46012;-73
2023/05/14 02:21:39;;;;;;;;;10.00;8.00;;;;;14.41;76.81;101556.84;146618;702;47010;-75
2023/05/14 02:24:34;;;;;;;;;10.25;8.25;;;;;14.41;76.72;101562.06;146615;666;46016;-75
2023/05/14 02:27:37;;;;;;;;;9.25;6.50;;;;;14.44;76.60;101556.97;146616;691;46020;-73
2023/05/14 02:30:47;;;;;;;;;;;;;;;;;;;;;
2023/05/14 02:33:48;;;;;;;;;8.00;7.50;;;;;13.87;76.44;101462.91;146621;564;46014;-71
2023/05/14 02:36:44;;;;;;;;;7.75;7.00;;;;;14.44;76.21;101576.13;146613;581;46017;-71
2023/05/14 02:39:48;;;;;;;;;8.50;8.50;;;;;14.44;76.43;101580.47;146622;590;46010;-72
2023/05/14 02:43:05;;;;;;;;;8.25;7.50;;;;;13.89;76.23;101504.69;146614;594;46016;-73
2023/05/14 02:46:03;;;;;;;;;8.25;6.00;;;;;14.28;75.91;101577.09;146620;649;46009;-76
2023/05/14 02:48:56;;;;;;;;;6.00;5.75;;;;;14.23;76.56;101570.75;146615;674;47012;-78
2023/05/14 02:51:53;;;;;;;;;7.50;7.25;;;;;14.23;76.57;101562.03;146621;570;46020;-78
2023/05/14 02:54:49;;;;;;;;;7.00;7.00;;;;;14.18;77.02;101555.72;146618;569;46016;-78
2023/05/14 02:57:47;;;;;;;;;6.75;6.00;;;;;14.12;76.77;101556.28;146620;574;46011;-77
2023/05/14 03:00:45;;;;;;;;;6.50;6.00;;;;;14.10;76.81;101552.69;146619;680;46016;-74
2023/05/14 03:03:48;;;;;;;;;9.00;8.00;;;;;14.10;77.09;101553.59;146617;679;46021;-75
2023/05/14 03:06:40;;;;;;;;;7.75;6.25;;;;;14.12;77.04;101552.78;146618;597;46016;-74
2023/05/14 03:09:52;;;;;;;;;;;;;;;;;;;;;
2023/05/14 03:12:46;;;;;;;;;9.75;7.00;;;;;14.21;76.63;101574.12;146617;589;47013;-73
2023/05/14 03:15:47;;;;;;;;;8.75;6.00;;;;;14.28;76.72;101577.09;146612;622;47020;-73
2023/05/14 03:18:45;;;;;;;;;8.25;7.75;;;;;14.36;76.41;101590.53;146615;570;46017;-73
2023/05/14 03:21:44;;;;;;;;;6.75;5.50;;;;;14.43;76.23;101590.00;146620;587;46010;-72
2023/05/14 03:24:40;;;;;;;;;10.50;7.75;;;;;14.51;76.55;101593.03;146614;645;47016;-73
2023/05/14 03:27:45;;;;;;;;;9.50;8.00;;;;;14.60;75.90;101597.81;146622;576;45021;-73
2023/05/14 03:30:42;;;;;;;;;7.75;7.75;;;;;14.37;75.55;101561.00;146619;573;46012;-73
2023/05/14 03:33:36;;;;;;;;;8.50;6.75;;;;;14.66;76.09;101614.66;146622;570;46010;-73
2023/05/14 03:36:56;;;;;;;;;12.25;8.50;;;;;14.72;75.39;101612.34;146612;586;47017;-73
2023/05/14 03:40:01;;;;;;;;;7.25;6.75;;;;;14.74;75.46;101594.16;146620;569;47010;-72
2023/05/14 03:42:59;;;;;;;;;11.00;8.75;;;;;14.74;75.82;101579.37;146616;566;46016;-73
2023/05/14 03:46:00;;;;;;;;;8.00;7.25;;;;;14.72;75.70;101575.78;146609;637;46049;-73
2023/05/14 03:49:01;;;;;;;;;6.75;6.25;;;;;14.65;75.81;101565.00;146617;604;47026;-72
2023/05/14 03:52:12;;;;;;;;;15.00;9.00;;;;;14.65;76.46;101560.66;146619;625;46043;-72
2023/05/14 03:55:28;;;;;;;;;7.50;6.50;;;;;13.93;76.36;101431.94;146615;708;47016;-73
2023/05/14 03:58:27;;;;;;;;;8.25;7.25;;;;;14.63;77.57;101556.19;146622;624;46010;-73
2023/05/14 04:01:25;;;;;;;;;9.75;9.75;;;;;14.63;77.24;101587.50;146618;604;46916;-72
2023/05/14 04:04:33;;;;;;;;;7.50;7.25;;;;;14.63;78.84;101614.50;146623;587;46010;-72
2023/05/14 04:07:34;;;;;;;;;9.00;9.00;;;;;14.73;79.40;101640.22;146617;651;46020;-73
2023/05/14 04:10:34;;;;;;;;;9.75;8.00;;;;;14.81;78.41;101639.72;146621;570;46010;-72
2023/05/14 04:13:36;;;;;;;;;11.25;10.25;;;;;14.86;78.93;101623.47;146617;579;46917;-72
2023/05/14 04:16:41;;;;;;;;;12.00;9.25;;;;;14.94;78.24;101636.87;146611;610;46020;-72
2023/05/14 04:19:34;;;;;;;;;13.50;11.00;;;;;14.95;77.79;101642.19;146612;579;46012;-72
2023/05/14 04:22:31;;;;;;;;;8.75;8.00;;;;;14.96;79.53;101633.53;146612;721;47010;-73
2023/05/14 04:25:38;;;;;;;;;10.50;10.25;;;;;14.87;78.21;101624.34;146618;701;46016;-73
2023/05/14 04:28:37;;;;;;;;;7.25;7.25;;;;;14.86;78.02;101664.31;146614;611;46021;-74
2023/05/14 04:31:47;;;;;;;;;9.00;8.00;;;;;14.94;79.45;101683.88;146612;581;47016;-74
2023/05/14 04:34:55;;;;;;;;;8.00;7.00;;;;;15.01;79.08;101670.28;146619;707;46012;-73
2023/05/14 04:37:49;;;;;;;;;8.75;7.25;;;;;15.16;79.00;101678.88;146617;619;46016;-72
2023/05/14 04:40:43;;;;;;;;;8.00;7.50;;;;;15.31;79.04;101677.81;146625;603;46011;-72
2023/05/14 04:43:44;;;;;;;;;8.25;7.50;;;;;15.39;78.27;101669.53;146613;645;46914;-74
2023/05/14 04:46:46;;;;;;;;;8.50;7.75;;;;;15.50;77.30;101679.56;146615;621;46020;-74
2023/05/14 04:49:41;;;;;;;;;12.00;11.75;;;;;15.58;76.85;101673.00;146618;569;46017;-72
2023/05/14 04:52:33;;;;;;;;;11.25;11.00;;;;;15.59;76.44;101651.25;146612;618;47010;-71
2023/05/14 04:55:29;;;;;;;;;9.00;7.00;;;;;15.53;76.74;101638.78;146610;582;47012;-71
2023/05/14 04:58:23;;;;;;;;;11.00;9.00;;;;;15.46;76.28;101632.38;146623;703;46010;-71
2023/05/14 05:01:20;;;;;;;;;9.75;9.00;;;;;15.46;76.80;101652.41;146617;708;46016;-71
2023/05/14 05:04:29;;;;;;;;;10.00;9.00;;;;;15.49;76.94;101670.84;146620;616;47011;-72
2023/05/14 05:07:26;;;;;;;;;12.50;9.75;;;;;15.53;77.59;101696.28;146616;630;46012;-72
2023/05/14 05:10:19;;;;;;;;;11.00;9.50;;;;;15.56;79.18;101711.22;146620;579;46020;-69
2023/05/14 05:13:21;;;;;;;;;10.75;9.75;;;;;15.54;78.04;101700.69;146615;588;46016;-70
2023/05/14 05:16:17;;;;;;;;;14.00;10.75;;;;;15.55;78.42;101696.38;146610;584;47010;-71
2023/05/14 05:19:25;;;;;;;;;11.00;11.00;;;;;15.51;78.68;101704.87;146609;573;47012;-70
2023/05/14 05:22:23;;;;;;;;;10.50;10.50;;;;;15.47;78.61;101741.31;146617;653;46014;-70
2023/05/14 05:25:15;;;;;;;;;9.00;7.50;;;;;15.46;79.08;101734.31;146611;567;46017;-71
2023/05/14 05:28:15;;;;;;;;;8.00;8.00;;;;;15.48;79.24;101734.38;146622;569;46020;-70
2023/05/14 05:31:19;;;;;;;;;11.00;10.25;;;;;15.53;79.48;101748.56;146615;622;46016;-71
2023/05/14 05:34:15;;;;;;;;;8.00;7.00;;;;;15.61;79.59;101760.28;146623;597;46021;-71
2023/05/14 05:37:18;;;;;;;;;11.75;9.75;;;;;15.70;79.51;101757.25;146617;624;46016;-71
2023/05/14 05:40:34;;;;;;;;;11.75;11.75;;;;;15.74;78.37;101767.03;146621;569;46010;-70
2023/05/14 05:43:27;;;;;;;;;11.00;10.00;;;;;15.81;79.74;101776.06;146616;577;46016;-71
2023/05/14 05:46:28;;;;;;;;;12.75;11.00;;;;;15.90;79.48;101763.41;146616;583;46047;-72
2023/05/14 05:49:21;;;;;;;;;13.25;11.25;;;;;16.01;79.42;101777.88;146616;672;46016;-70
2023/05/14 05:52:13;;;;;;;;;11.00;10.50;;;;;16.11;79.54;101773.97;146622;564;46020;-72
2023/05/14 05:55:20;;;;;;;;;14.75;12.00;;;;;16.22;78.66;101764.84;146614;578;47012;-72
2023/05/14 05:58:26;;;;;;;;;14.00;13.00;;;;;16.35;77.42;101758.44;146621;628;47010;-72
2023/05/14 06:01:30;;;;;;;;;12.75;11.50;;;;;16.45;76.35;101759.72;146617;605;46016;-76
2023/05/14 06:04:26;;;;;;;;;14.50;10.50;;;;;16.56;77.16;101769.84;146620;618;46020;-72
2023/05/14 06:07:24;;;;;;;;;12.25;11.00;;;;;16.72;76.73;101781.00;146615;564;46016;-71
2023/05/14 06:10:27;;;;;;;;;17.25;13.75;;;;;16.83;75.33;101787.62;146621;581;46021;-72
2023/05/14 06:13:20;;;;;;;;;11.75;9.75;;;;;16.89;75.10;101785.28;146611;676;46016;-71
2023/05/14 06:16:19;;;;;;;;;11.25;9.50;;;;;16.95;74.09;101792.50;146616;670;46014;-77
2023/05/14 06:19:23;;;;;;;;;10.75;10.25;;;;;17.00;74.31;101801.44;146617;587;46012;-76
2023/05/14 06:22:43;;;;;;;;;10.75;9.25;;;;;17.09;74.82;101792.22;146620;569;46020;-77
2023/05/14 06:25:42;;;;;;;;;6.00;5.00;;;;;17.18;73.96;101796.06;146629;646;46916;-77
2023/05/14 06:28:43;;;;;;;;;10.33;8.00;;;;;17.24;73.21;101799.84;146634;589;45030;-77
2023/05/14 06:31:38;;;;;;;;;5.33;5.33;;;;;17.29;72.69;101784.31;146636;606;45016;-78
2023/05/14 06:34:34;;;;;;;;;9.25;9.25;;;;;17.33;72.55;101775.72;146627;584;46937;-77
2023/05/14 06:37:40;;;;;;;;;8.75;7.75;;;;;17.39;71.50;101769.84;146634;705;46012;-77
2023/05/14 06:40:36;;;;;;;;;10.67;9.00;;;;;17.38;71.90;101766.31;146635;649;46014;-77
2023/05/14 06:43:33;;;;;;;;;7.67;7.67;;;;;17.41;71.63;101771.66;146636;667;45016;-77
2023/05/14 06:46:29;;;;;;;;;10.25;9.75;;;;;17.41;71.81;101771.66;146633;565;46020;-76
2023/05/14 06:49:31;;;;;;;;;9.75;7.50;;;;;17.49;71.86;101774.62;146636;588;45016;-77
2023/05/14 06:52:28;;;;;;;;;12.33;11.00;;;;;17.54;71.32;101775.69;146634;607;46010;-77
2023/05/14 06:55:29;;;;;;;;;7.00;6.00;;;;;17.61;70.74;101789.94;146632;564;45036;-77
2023/05/14 06:58:38;;;;;;;;;15.00;13.50;;;;;17.65;70.81;101794.47;146636;672;45020;-76
2023/05/14 07:01:33;;;;;;;;;10.50;10.00;;;;;17.74;70.67;101771.22;146631;621;46016;-76
2023/05/14 07:04:29;;;;;;;;;11.25;9.50;;;;;17.80;68.52;101754.88;146635;625;46010;-77
2023/05/14 07:07:27;;;;;;;;;10.00;7.67;;;;;17.80;69.17;101742.63;146632;579;46014;-77
2023/05/14 07:10:19;;;;;;;;;8.75;8.00;;;;;17.84;68.91;101733.16;146635;658;45021;-77
2023/05/14 07:13:25;;;;;;;;;7.33;7.33;;;;;17.93;69.99;101723.88;146623;659;47012;-78
2023/05/14 07:16:22;;;;;;;;;9.67;9.33;;;;;18.12;69.18;101712.31;146635;637;46010;-77
2023/05/14 07:19:17;;;;;;;;;8.00;7.00;;;;;18.27;67.64;101712.00;146636;598;45016;-76
2023/05/14 07:22:20;;;;;;;;;7.00;6.67;;;;;18.27;66.38;101703.22;146634;604;45014;-76
2023/05/14 07:25:17;;;;;;;;;10.33;9.33;;;;;18.26;67.25;101702.34;146619;584;47013;-77
2023/05/14 07:28:13;;;;;;;;;6.75;6.50;;;;;18.21;66.98;101694.28;146623;606;46020;-76
2023/05/14 07:31:16;;;;;;;;;7.25;6.50;;;;;18.07;66.33;101681.50;146616;633;46016;-78
2023/05/14 07:34:17;;;;;;;;;8.00;6.33;;;;;17.86;67.80;101666.78;146619;609;46012;-78
2023/05/14 07:37:25;;;;;;;;;;;;;;;;;;;;;
2023/05/14 07:40:28;;;;;;;;;9.00;7.75;;;;;17.53;69.06;101648.91;146620;658;46021;-77
2023/05/14 07:43:28;;;;;;;;;10.33;8.33;;;;;17.33;70.57;101652.53;146618;658;46012;-76
2023/05/14 07:46:29;;;;;;;;;8.25;6.50;;;;;17.23;71.95;101663.50;146616;625;46020;-77
2023/05/14 07:49:29;;;;;;;;;9.67;7.00;;;;;17.11;71.80;101647.28;146614;565;48014;-76
2023/05/14 07:52:27;;;;;;;;;6.25;6.25;;;;;16.99;72.53;101608.38;146619;575;46010;-77
2023/05/14 07:55:31;;;;;;;;;7.75;7.75;;;;;16.85;73.57;101544.97;146618;603;46017;-80
2023/05/14 07:58:40;;;;;;;;;7.67;7.00;;;;;16.74;76.21;101552.37;146624;597;46020;-77
2023/05/14 08:01:39;;;;;;;;;13.25;11.75;;;;;16.62;75.27;101560.62;146615;564;46016;-76
2023/05/14 08:04:34;;;;;;;;;9.00;8.50;;;;;16.59;76.76;101573.59;146621;702;46020;-76
2023/05/14 08:07:49;;;;;;;;;;;;;;;;;;;;;
2023/05/14 08:10:47;;;;;;;;;16.50;14.50;;;;;16.65;75.64;101583.44;146622;574;46021;-77
2023/05/14 08:13:43;;;;;;;;;11.50;8.25;;;;;16.71;75.19;101580.19;146616;676;46012;-78
2023/05/14 08:16:45;;;;;;;;;9.25;8.00;;;;;16.78;74.72;101577.88;146620;579;46010;-77
2023/05/14 08:19:48;;;;;;;;;17.75;14.75;;;;;16.85;73.13;101585.19;146616;569;46017;-77
2023/05/14 08:22:46;;;;;;;;;10.50;10.25;;;;;16.92;75.90;101596.78;146620;619;45030;-76
2023/05/14 08:25:42;;;;;;;;;18.50;17.00;;;;;17.07;78.00;101610.47;146607;581;48012;-77
2023/05/14 08:28:43;;;;;;;;;10.50;9.00;;;;;17.35;76.63;101631.59;146612;569;46020;-77
2023/05/14 08:31:47;;;;;;;;;13.00;11.50;;;;;17.15;76.26;101545.25;146620;572;46014;-76
2023/05/14 08:34:45;;;;;;;;;12.25;11.75;;;;;17.99;75.30;101636.63;146614;617;46010;-77
2023/05/14 08:37:46;;;;;;;;;13.00;13.00;;;;;18.20;73.00;101641.75;146606;565;47012;-78
2023/05/14 08:40:44;;;;;;;;;11.50;10.50;;;;;18.31;72.79;101645.62;146613;571;46021;-76
2023/05/14 08:44:09;;;;;;;;;11.50;10.75;;;;;17.36;72.92;101473.50;146613;638;46016;-77
2023/05/14 08:47:14;;;;;;;;;11.50;8.50;;;;;17.64;71.25;101505.09;146606;699;47020;-78
2023/05/14 08:50:32;;;;;;;;;9.33;8.67;;;;;18.59;71.75;101660.56;146616;605;46016;-77
2023/05/14 08:53:34;;;;;;;;;11.75;9.50;;;;;18.90;73.89;101675.66;146618;656;46020;-77
2023/05/14 08:56:36;;;;;;;;;10.75;10.00;;;;;19.40;72.82;101680.69;146614;582;46017;-77
2023/05/14 08:59:49;;;;;;;;;10.25;9.25;;;;;19.74;68.03;101694.91;146608;569;47020;-76
2023/05/14 09:02:52;;;;;;;;;9.00;9.00;;;;;19.83;68.22;101693.44;146617;636;46914;-77
2023/05/14 09:05:57;;;;;;;;;10.67;9.67;;;;;19.92;67.53;101689.28;146619;590;46020;-77
2023/05/14 09:08:52;;;;;;;;;13.00;10.33;;;;;20.01;65.47;101698.31;146618;604;47012;-78
2023/05/14 09:11:56;;;;;;;;;11.33;10.33;;;;;20.06;65.36;101686.19;146615;579;46020;-77
2023/05/14 09:15:22;;;;;;;;;10.00;9.00;;;;;20.05;64.51;101670.34;146603;571;48916;-77
2023/05/14 09:18:26;;;;;;;;;7.00;7.00;;;;;20.02;64.69;101639.56;146611;578;47010;-78
2023/05/14 09:21:34;;;;;;;;;5.33;5.33;;;;;19.87;63.00;101622.44;146610;640;47916;-76
2023/05/14 09:24:33;;;;;;;;;7.33;7.00;;;;;19.62;65.11;101643.69;146622;593;47010;-77
2023/05/14 09:27:36;;;;;;;;;9.33;7.67;;;;;19.50;67.88;101642.41;146619;585;46916;-77
2023/05/14 09:30:33;;;;;;;;;12.00;11.00;;;;;19.64;67.34;101643.75;146622;635;46010;-77
2023/05/14 09:33:35;;;;;;;;;10.67;7.00;;;;;19.84;65.20;101653.13;146612;602;46012;-76
2023/05/14 09:36:30;;;;;;;;;8.00;7.00;;;;;20.04;64.57;101647.50;146621;571;46010;-77
2023/05/14 09:39:45;;;;;;;;;10.33;8.00;;;;;20.32;64.75;101645.62;146617;590;47914;-77
2023/05/14 09:42:41;;;;;;;;;11.33;9.00;;;;;20.53;62.10;101647.09;146623;589;46010;-77
2023/05/14 09:45:39;;;;;;;;;6.33;5.67;;;;;20.67;59.99;101644.78;146617;635;46016;-76
2023/05/14 09:48:39;;;;;;;;;7.00;6.00;;;;;20.79;58.78;101638.03;146615;580;46020;-77
2023/05/14 09:51:41;;;;;;;;;7.00;6.00;;;;;20.93;59.31;101645.44;146617;615;46016;-77
2023/05/14 09:54:46;;;;;;;;;;;;;;;;;;;;;
2023/05/14 09:58:00;;;;;;;;;3.33;3.33;;;;;21.01;54.28;101642.06;146620;633;46016;-78
2023/05/14 10:01:11;;;;;;;;;;;;;;;;;;;;;
2023/05/14 10:04:24;;;;;;;;;;;;;;;;;;;;;
2023/05/14 10:07:24;;;;;;;;;3.00;3.00;;;;;21.14;56.62;101612.47;146619;573;47015;-78
2023/05/14 10:10:34;;;;;;;;;4.00;4.00;;;;;21.02;56.12;101613.06;146619;660;46012;-78
2023/05/14 10:14:04;;;;;;;;;2.67;2.67;;;;;20.85;57.47;101593.37;146618;644;47020;-78
2023/05/14 10:17:17;;;;;;;;;4.00;3.33;;;;;20.64;59.36;101583.22;146618;570;46016;-77
2023/05/14 10:20:38;;;;;;;;;5.33;5.00;;;;;20.59;57.81;101596.28;146610;592;46020;-78
2023/05/14 10:23:36;;;;;;;;;6.00;5.00;;;;;20.48;57.58;101598.59;146612;632;47016;-78
2023/05/14 10:26:31;;;;;;;;;2.67;2.67;;;;;20.40;56.59;101599.25;146619;611;47010;-77
2023/05/14 10:29:23;;;;;;;;;6.67;6.00;;;;;20.47;57.56;101611.75;146617;679;46016;-77
2023/05/14 10:32:25;;;;;;;;;8.00;7.33;;;;;20.63;59.84;101613.94;146622;588;46021;-77
2023/05/14 10:36:01;;;;;;;;;8.00;8.00;;;;;20.59;60.03;101591.03;146614;563;47041;-79
2023/05/14 10:39:09;;;;;;;;;10.00;9.00;;;;;21.06;58.35;101649.22;146621;617;46010;-76
2023/05/14 10:42:06;;;;;;;;;5.00;5.00;;;;;21.27;56.11;101637.37;146616;570;46016;-79
2023/05/14 10:45:23;;;;;;;;;8.00;7.00;;;;;21.37;57.36;101634.09;146623;640;46014;-78
2023/05/14 10:48:20;;;;;;;;;5.33;5.00;;;;;21.43;54.49;101615.75;146619;566;46022;-77
2023/05/14 10:51:18;;;;;;;;;7.67;7.67;;;;;21.37;56.20;101615.63;146616;665;46020;-78
2023/05/14 10:54:16;;;;;;;;;7.00;6.00;;;;;21.18;56.66;101628.41;146617;566;46914;-77
2023/05/14 10:57:15;;;;;;;;;5.00;3.67;;;;;20.96;58.71;101629.66;146621;658;47010;-77
2023/05/14 11:00:23;;;;;;;;;3.67;3.00;;;;;20.76;59.23;101609.84;146618;665;46013;-78
2023/05/14 11:03:21;;;;;;;;;5.33;5.33;;;;;20.66;60.09;101618.41;146623;611;46010;-75
2023/05/14 11:06:31;;;;;;;;;3.00;3.00;;;;;20.73;60.01;101618.56;146618;587;46016;-75
2023/05/14 11:09:24;;;;;;;;;7.33;7.33;;;;;20.82;57.99;101617.03;146616;567;46918;-75
2023/05/14 11:12:40;;;;;;;;;7.00;7.00;;;;;20.80;58.53;101627.50;146615;635;46016;-75
2023/05/14 11:15:32;;;;;;;;;5.00;4.00;;;;;20.78;58.37;101642.41;146625;674;46010;-75
2023/05/14 11:18:48;;;;;;;;;5.00;5.00;;;;;20.75;60.92;101632.69;146619;601;46012;-75
2023/05/14 11:21:55;;;;;;;;;3.00;3.00;;;;;20.88;59.55;101638.25;146620;588;46021;-75
2023/05/14 11:24:56;;;;;;;;;4.00;3.00;;;;;21.00;58.26;101612.19;146617;656;46016;-75
2023/05/14 11:27:50;;;;;;;;;4.67;4.67;;;;;21.14;58.70;101609.84;146625;652;46010;-76
2023/05/14 11:31:05;;;;;;;;;5.33;5.00;;;;;21.28;58.44;101594.28;146618;570;46016;-75
2023/05/14 11:34:03;;;;;;;;;3.00;3.00;;;;;21.39;56.60;101588.44;146623;569;46020;-75
2023/05/14 11:37:00;;;;;;;;;4.00;3.67;;;;;21.48;54.60;101576.28;146614;599;46017;-76
2023/05/14 11:40:17;;;;;;;;;4.00;4.00;;;;;21.54;57.49;101552.66;146620;590;46020;-75
2023/05/14 11:43:34;;;;;;;;;;;;;;;;;;;;;
2023/05/14 11:46:34;;;;;;;;;3.67;2.67;;;;;21.72;54.34;101538.94;146623;563;46020;-75
2023/05/14 11:49:47;;;;;;;;;3.00;3.00;;;;;21.58;57.83;101528.97;146619;586;46014;-74
2023/05/14 11:52:59;;;;;;;;;4.00;4.00;;;;;21.65;55.38;101511.50;146613;576;46020;-75
2023/05/14 11:56:01;;;;;;;;;;;;;;;;;;;;;
2023/05/14 11:59:06;;;;;;;;;5.00;5.00;;;;;21.83;57.10;101506.56;146621;569;47011;-75
2023/05/14 12:02:05;;;;;;;;;7.67;5.67;;;;;21.84;55.08;101487.25;146619;585;47012;-75
2023/05/14 12:05:13;;;;;;;;;5.33;5.33;;;;;21.78;58.63;101507.38;146619;614;46020;-73
2023/05/14 12:08:32;;;;;;;;;;;;;;;;;;;;;
2023/05/14 12:11:33;;;;;;;;;3.33;3.33;;;;;21.46;48.52;101478.63;146617;635;47010;-74
2023/05/14 12:14:47;;;;;;;;;3.00;3.00;;;;;21.32;54.45;101493.28;146619;569;46913;-75
2023/05/14 12:17:57;;;;;;;;;4.33;4.33;;;;;21.12;48.68;101499.06;146619;617;47020;-75
2023/05/14 12:20:52;;;;;;;;;4.67;4.00;;;;;21.05;57.24;101502.41;146617;637;47012;-74
2023/05/14 12:24:01;;;;;;;;;3.67;3.00;;;;;21.07;56.80;101498.06;146614;732;46010;-74
2023/05/14 12:26:59;;;;;;;;;4.33;4.00;;;;;21.10;52.21;101503.41;146617;583;46014;-75
2023/05/14 12:30:16;;;;;;;;;5.33;4.00;;;;;21.12;58.76;101517.50;146622;591;47010;-75
2023/05/14 12:33:14;;;;;;;;;5.00;5.00;;;;;21.13;50.69;101498.19;146619;579;46012;-75
2023/05/14 12:36:14;;;;;;;;;4.33;4.33;;;;;21.23;55.65;101502.78;146621;638;46021;-75
2023/05/14 12:39:10;;;;;;;;;5.00;4.00;;;;;21.27;54.39;101511.63;146618;661;47016;-74
2023/05/14 12:42:17;;;;;;;;;5.00;4.00;;;;;21.17;53.86;101505.28;146622;601;47010;-75
2023/05/14 12:45:14;;;;;;;;;7.00;5.00;;;;;21.13;54.40;101516.66;146617;589;46017;-74
2023/05/14 12:48:12;;;;;;;;;3.00;3.00;;;;;21.17;54.33;101500.03;146621;599;46020;-74
2023/05/14 12:51:11;;;;;;;;;2.67;1.00;;;;;21.22;54.69;101494.84;146616;650;46914;-75
2023/05/14 12:54:15;;;;;;;;;3.00;2.00;;;;;21.18;51.23;101493.00;146619;659;46020;-73
2023/05/14 12:57:13;;;;;;;;;4.67;3.00;;;;;21.23;53.56;101481.69;146619;583;46016;-73
2023/05/14 13:00:19;;;;;;;;;4.00;4.00;;;;;21.37;56.80;101481.09;146621;587;46020;-74
2023/05/14 13:03:17;;;;;;;;;3.67;3.00;;;;;21.48;50.01;101473.38;146617;577;46020;-74
2023/05/14 13:06:20;;;;;;;;;4.33;3.33;;;;;21.54;55.54;101460.31;146620;636;46021;-74
2023/05/14 13:09:15;;;;;;;;;3.00;3.00;;;;;21.55;51.42;101452.41;146615;592;46016;-74
2023/05/14 13:12:18;;;;;;;;;2.67;2.67;;;;;21.51;53.42;101455.84;146619;580;47020;-75
2023/05/14 13:15:32;;;;;;;;;3.33;2.67;;;;;20.83;54.31;101357.84;146619;590;46012;-75
2023/05/14 13:18:25;;;;;;;;;3.67;3.67;;;;;21.36;51.41;101458.22;146619;614;46020;-73
2023/05/14 13:21:18;;;;;;;;;3.67;3.00;;;;;21.33;51.44;101443.19;146619;606;46016;-73
2023/05/14 13:24:16;;;;;;;;;4.67;4.67;;;;;21.29;49.62;101435.19;146613;587;47010;-74
2023/05/14 13:27:11;;;;;;;;;5.67;4.67;;;;;21.34;54.48;101438.78;146620;650;46012;-77
2023/05/14 13:30:04;;;;;;;;;4.33;4.33;;;;;21.38;52.25;101451.22;146619;567;46020;-74
2023/05/14 13:32:57;;;;;;;;;4.33;3.00;;;;;21.45;54.05;101442.56;146620;596;46038;-75
2023/05/14 13:35:52;;;;;;;;;2.33;2.33;;;;;21.46;51.68;101449.59;146624;572;45021;-74
2023/05/14 13:38:45;;;;;;;;;4.00;4.00;;;;;21.45;55.17;101458.38;146619;643;47012;-74
2023/05/14 13:41:37;;;;;;;;;4.00;4.00;;;;;21.36;53.80;101468.75;146621;670;47020;-75
2023/05/14 13:44:30;;;;;;;;;5.00;4.00;;;;;21.31;53.88;101449.28;146618;603;46014;-74
2023/05/14 13:47:30;;;;;;;;;4.33;4.00;;;;;21.28;53.93;101444.84;146622;644;46010;-75
2023/05/14 13:50:25;;;;;;;;;4.33;3.33;;;;;21.31;55.91;101429.09;146616;569;46014;-76
2023/05/14 13:53:29;;;;;;;;;;;;;;;;;;;;;
2023/05/14 13:56:33;;;;;;;;;4.67;4.33;;;;;21.39;56.42;101424.84;146618;650;46016;-74
2023/05/14 13:59:28;;;;;;;;;3.67;3.67;;;;;21.33;54.26;101406.25;146622;570;46020;-75
2023/05/14 14:02:20;;;;;;;;;4.67;3.67;;;;;21.23;55.22;101418.38;146619;654;46016;-74
2023/05/14 14:05:30;;;;;;;;;2.00;2.00;;;;;21.08;53.24;101412.81;146621;623;47010;-74
2023/05/14 14:08:25;;;;;;;;;4.00;4.00;;;;;20.95;54.64;101397.62;146617;620;47016;-75
2023/05/14 14:11:30;;;;;;;;;4.00;4.00;;;;;20.89;54.29;101374.66;146620;565;46020;-75
2023/05/14 14:14:28;;;;;;;;;4.67;4.00;;;;;20.88;54.12;101382.56;146616;637;47016;-75
2023/05/14 14:17:35;;;;;;;;;3.00;3.00;;;;;20.83;54.08;101392.09;146623;594;46014;-74
2023/05/14 14:20:33;;;;;;;;;6.00;4.00;;;;;20.82;53.52;101370.13;146617;566;46017;-75